Terminal Aerodrome Forecast
Issued by NWS Louisville, KY

Home | Current Version | Previous Version | Text Only | Print | Product List | Glossary On
Versions: 1 2 3 4 5 6 7 8 9 10 11 12 13 14 15 16 17 18
000
FTUS43 KLMK 011800 AAA
TAFSDF
TAF AMD
KSDF 011848Z 0119/0224 19012G22KT 4SM -RA BR BKN025
      TEMPO 0119/0121 2SM -RA BR BKN018
     FM012100 19011G21KT 4SM -RA BR BKN009 OVC015
     FM020200 25012KT P6SM VCSH OVC018
     FM020900 30016G27KT P6SM VCSH OVC021
     FM021500 30012KT P6SM BKN025=

USA.gov is the U.S. government's official web portal to all federal, state and local government web resources and services.